Zigzag, Oregon
Current Conditions -  °F | °C
As of 5:59 AM on Friday 24 Oct 2014 (Local Time) from K4S2 Reporting Station
Haze Haze  
Wind Chill: 45°   Ceiling: 7000
Heat Index: 45°   Visibility: 1.7mi
Dew Point: 43°   Wind: 0mph
Humidity: 93%   Direction: NA
Pressure: 30.06"   Gusts: NA
Location:  45.3555°N, 121.853°W
Report Text: K4S2 241259Z AUTO 00000KT 1 3/4SM BR OVC070 07/06 A3006 RMK AO2 SLP194 T00700060
Loading
Personal Weather Stations






























Interactive Weather Map
Tropical Storm Tracking
New forecast layout! Learn more

10-Day Weather Forecast

Advertisements
Track Severe Weather on mobile